This is the latest recevied weather packets stored in our database for station/object VU3HGG-WX. If no packets are shown the sender has not sent any weather packets the latest 10 day(s).
| Time | Temp. | Humidity | Pressure | Rain* | Wind** | Luminosity | Snow |
|---|---|---|---|---|---|---|---|
| 1787927176 | 26.11° C | 68% | 910.2 hPa | - | - | - | - |
| 1787926575 | 26.11° C | 69% | 910 hPa | - | - | - | - |
| 1787925975 | 26.11° C | 71% | 909.9 hPa | - | - | - | - |
| 1787925376 | 26.11° C | 71% | 909.8 hPa | - | - | - | - |
| 1787924775 | 26.67° C | 70% | 909.7 hPa | - | - | - | - |
| 1787924176 | 26.11° C | 69% | 909.6 hPa | - | - | - | - |
| 1787923576 | 26.11° C | 70% | 909.5 hPa | - | - | - | - |
| 1787922975 | 26.11° C | 70% | 909.2 hPa | - | - | - | - |
| 1787922375 | 27.22° C | 65% | 908.9 hPa | - | - | - | - |
| 1787921776 | 27.22° C | 64% | 908.7 hPa | - | - | - | - |
| 1787921176 | 26.67° C | 65% | 908.7 hPa | - | - | - | - |
| 1787920576 | 27.22° C | 64% | 908.4 hPa | - | - | - | - |
| 1787919976 | 26.67° C | 64% | 908.3 hPa | - | - | - | - |
| 1787919375 | 27.22° C | 64% | 908.3 hPa | - | - | - | - |
| 1787918775 | 27.22° C | 64% | 908.1 hPa | - | - | - | - |
| 1787918175 | 27.22° C | 62% | 908.1 hPa | - | - | - | - |
| 1787917575 | 27.22° C | 62% | 907.9 hPa | - | - | - | - |
| 1787916976 | 27.22° C | 61% | 907.8 hPa | - | - | - | - |
| 1787916375 | 27.22° C | 60% | 907.6 hPa | - | - | - | - |
| 1787915776 | 26.67° C | 61% | 907.5 hPa | - | - | - | - |
| 1787915175 | 27.22° C | 60% | 907.4 hPa | - | - | - | - |
| 1787914575 | 27.22° C | 59% | 907.4 hPa | - | - | - | - |
| 1787913975 | 27.22° C | 60% | 907.4 hPa | - | - | - | - |
| 1787913377 | 27.22° C | 59% | 907.3 hPa | - | - | - | - |
| 1787912775 | 27.22° C | 60% | 907.2 hPa | - | - | - | - |
* Rain since midnight (hover to see other rain measurements)
** Current wind speed in m/s (hover to see current wind gust speed)